createdAt,value
2022-11-24T00:02:14.765Z,8.52
2022-11-24T00:04:44.531Z,8.70
2022-11-24T00:07:14.629Z,8.74
2022-11-24T00:09:44.206Z,8.78
2022-11-24T00:12:14.150Z,8.76
2022-11-24T00:14:44.559Z,9.00
2022-11-24T00:17:13.975Z,9.07
2022-11-24T00:19:44.083Z,9.00
2022-11-24T00:22:13.810Z,8.98
2022-11-24T00:24:43.580Z,8.98
2022-11-24T00:27:13.516Z,8.87
2022-11-24T00:29:43.546Z,8.98
2022-11-24T00:32:13.307Z,8.98
2022-11-24T00:34:43.115Z,8.92
2022-11-24T00:37:12.849Z,8.88
2022-11-24T00:39:42.585Z,9.01
2022-11-24T00:42:14.093Z,8.86
2022-11-24T00:44:43.922Z,8.76
2022-11-24T00:47:13.792Z,8.83
2022-11-24T00:49:43.562Z,8.85
2022-11-24T00:52:13.174Z,8.67
2022-11-24T00:54:42.938Z,8.72
2022-11-24T00:57:12.722Z,8.70
2022-11-24T00:59:42.490Z,8.69
2022-11-24T01:02:12.299Z,8.72
2022-11-24T01:04:42.162Z,8.65
2022-11-24T01:07:12.041Z,8.67
2022-11-24T01:09:43.505Z,8.53
2022-11-24T01:12:13.485Z,8.59
2022-11-24T01:14:43.509Z,8.54
2022-11-24T01:17:13.537Z,8.65
2022-11-24T01:19:43.271Z,8.60
2022-11-24T01:22:13.023Z,8.62
2022-11-24T01:24:43.187Z,8.59
2022-11-24T01:27:13.000Z,8.65
2022-11-24T01:29:42.730Z,8.62
2022-11-24T01:32:12.506Z,8.66
2022-11-24T01:34:42.596Z,8.52
2022-11-24T01:37:12.057Z,8.55
2022-11-24T01:39:41.859Z,8.61
2022-11-24T01:42:11.785Z,8.56
2022-11-24T01:44:43.013Z,8.54
2022-11-24T01:47:33.682Z,8.48
2022-11-24T01:50:05.525Z,8.58
2022-11-24T01:52:41.143Z,8.71
2022-11-24T01:55:13.911Z,8.54
2022-11-24T01:57:58.570Z,8.42
2022-11-24T02:00:28.837Z,8.42
2022-11-24T02:02:59.824Z,8.42
2022-11-24T02:05:38.554Z,8.36
2022-11-24T02:08:12.843Z,8.29
2022-11-24T02:10:43.934Z,8.40
2022-11-24T02:13:15.782Z,8.42
2022-11-24T02:15:45.621Z,8.41
2022-11-24T02:18:15.032Z,8.25
2022-11-24T02:20:44.837Z,8.26
2022-11-24T02:23:20.553Z,8.26
2022-11-24T02:26:11.422Z,8.40
2022-11-24T02:28:41.744Z,8.39
2022-11-24T02:31:11.689Z,8.50
2022-11-24T02:33:41.632Z,8.61
2022-11-24T02:36:11.255Z,8.48
2022-11-24T02:38:40.994Z,8.49
2022-11-24T02:41:14.077Z,8.49
2022-11-24T02:43:46.278Z,8.62
2022-11-24T02:46:16.158Z,8.38
2022-11-24T02:48:46.036Z,8.36
2022-11-24T02:51:16.047Z,8.45
2022-11-24T02:53:46.136Z,8.31
2022-11-24T02:56:15.618Z,8.33
2022-11-24T02:58:45.663Z,8.43
2022-11-24T03:01:15.464Z,8.35
2022-11-24T03:03:45.356Z,8.42
2022-11-24T03:06:15.059Z,8.29
2022-11-24T03:08:45.181Z,8.34
2022-11-24T03:11:14.663Z,8.34
2022-11-24T03:13:44.394Z,8.27
2022-11-24T03:16:14.178Z,8.53
2022-11-24T03:18:43.925Z,8.54
2022-11-24T03:21:13.952Z,8.59
2022-11-24T03:23:43.688Z,8.60
2022-11-24T03:26:16.127Z,8.53
2022-11-24T03:28:46.485Z,8.68
2022-11-24T03:31:16.442Z,8.64
2022-11-24T03:33:46.183Z,8.41
2022-11-24T03:36:16.794Z,8.31
2022-11-24T03:38:46.760Z,8.26
2022-11-24T03:41:16.870Z,8.30
2022-11-24T03:43:46.586Z,8.31
2022-11-24T03:46:16.175Z,8.20
2022-11-24T03:48:45.858Z,8.32
2022-11-24T03:51:15.634Z,8.54
2022-11-24T03:53:45.400Z,8.68
2022-11-24T03:56:15.837Z,8.50
2022-11-24T03:58:45.630Z,8.62
2022-11-24T04:01:15.425Z,8.54
2022-11-24T04:03:45.172Z,8.68
2022-11-24T04:06:14.982Z,8.64
2022-11-24T04:08:44.803Z,8.53
2022-11-24T04:11:16.486Z,8.52
2022-11-24T04:13:48.417Z,8.31
2022-11-24T04:16:18.169Z,8.20
2022-11-24T04:18:47.895Z,8.16
2022-11-24T04:21:17.924Z,8.26
2022-11-24T04:23:48.087Z,8.38
2022-11-24T04:26:17.525Z,8.39
2022-11-24T04:28:47.280Z,8.52
2022-11-24T04:31:17.795Z,8.52
2022-11-24T04:33:47.575Z,8.66
2022-11-24T04:36:17.189Z,8.69
2022-11-24T04:39:23.378Z,8.49
2022-11-24T04:41:18.339Z,8.52
2022-11-24T04:43:50.454Z,8.70
2022-11-24T04:46:20.244Z,8.62
2022-11-24T04:48:49.994Z,8.60
2022-11-24T04:51:19.808Z,8.55
2022-11-24T04:53:52.970Z,8.83
2022-11-24T04:56:23.005Z,8.70
2022-11-24T04:58:52.736Z,8.72
2022-11-24T05:01:22.550Z,8.68
2022-11-24T05:03:57.229Z,8.74
2022-11-24T05:06:26.976Z,8.79
2022-11-24T05:08:56.711Z,8.83
2022-11-24T05:11:26.443Z,8.83
2022-11-24T05:13:56.170Z,8.61
2022-11-24T05:16:26.503Z,8.51
2022-11-24T05:18:56.526Z,8.51
2022-11-24T05:21:26.635Z,8.51
2022-11-24T05:23:56.065Z,8.39
2022-11-24T05:26:25.578Z,8.43
2022-11-24T05:28:55.543Z,8.42
2022-11-24T05:31:25.374Z,8.34
2022-11-24T05:33:55.109Z,8.42
2022-11-24T05:36:42.437Z,8.47
2022-11-24T05:39:12.163Z,8.35
2022-11-24T05:41:43.172Z,8.42
2022-11-24T05:44:13.000Z,8.35
2022-11-24T05:46:42.824Z,8.57
2022-11-24T05:49:12.581Z,8.42
2022-11-24T05:51:42.317Z,8.49
2022-11-24T05:54:11.729Z,8.37
2022-11-24T05:56:41.764Z,8.43
2022-11-24T05:59:11.488Z,8.52
2022-11-24T06:01:41.274Z,8.35
2022-11-24T06:04:11.198Z,8.40
2022-11-24T06:06:40.974Z,8.44
2022-11-24T06:09:10.685Z,8.46
2022-11-24T06:11:40.426Z,8.54
2022-11-24T06:14:12.816Z,8.49
2022-11-24T06:16:42.607Z,8.50
2022-11-24T06:19:12.970Z,8.65
2022-11-24T06:21:42.730Z,8.61
2022-11-24T06:24:12.211Z,8.50
2022-11-24T06:26:42.476Z,8.39
2022-11-24T06:29:12.197Z,8.67
2022-11-24T06:31:41.979Z,8.63
2022-11-24T06:34:13.804Z,8.65
2022-11-24T06:36:43.548Z,8.81
2022-11-24T06:39:13.259Z,8.76
2022-11-24T06:41:42.976Z,8.76
2022-11-24T06:44:12.750Z,8.42
2022-11-24T06:46:42.740Z,8.42
2022-11-24T06:49:12.641Z,8.42
2022-11-24T06:51:42.549Z,8.28
2022-11-24T06:54:15.043Z,8.41
2022-11-24T06:56:44.958Z,8.47
2022-11-24T06:59:20.389Z,8.46
2022-11-24T07:01:50.079Z,8.42
2022-11-24T07:04:20.249Z,8.40
2022-11-24T07:06:49.981Z,8.58
2022-11-24T07:09:19.708Z,8.65
2022-11-24T07:11:49.429Z,8.47
2022-11-24T07:14:19.113Z,8.56
2022-11-24T07:16:49.474Z,8.66
2022-11-24T07:19:24.718Z,8.73
2022-11-24T07:21:50.697Z,8.73
2022-11-24T07:24:20.508Z,8.69
2022-11-24T07:26:50.265Z,8.79
2022-11-24T07:29:20.031Z,8.53
2022-11-24T07:31:50.247Z,8.67
2022-11-24T07:34:19.997Z,8.69
2022-11-24T07:36:50.131Z,8.63
2022-11-24T07:39:19.805Z,8.63
2022-11-24T07:41:49.838Z,8.81
2022-11-24T07:44:19.279Z,8.88
2022-11-24T07:46:50.644Z,8.69
2022-11-24T07:49:20.713Z,8.81
2022-11-24T07:51:50.524Z,8.90
2022-11-24T07:54:20.060Z,8.66
2022-11-24T07:56:50.168Z,8.97
2022-11-24T07:59:19.894Z,8.76
2022-11-24T08:01:49.688Z,8.77
2022-11-24T08:04:19.218Z,8.87
2022-11-24T08:06:48.969Z,8.78
2022-11-24T08:09:18.735Z,9.07
2022-11-24T08:11:48.775Z,9.22
2022-11-24T08:14:18.207Z,9.19
2022-11-24T08:16:48.023Z,9.10
2022-11-24T08:19:17.767Z,9.04
2022-11-24T08:21:47.700Z,9.09
2022-11-24T08:24:17.257Z,9.07
2022-11-24T08:26:47.567Z,9.19
2022-11-24T08:29:17.289Z,9.24
2022-11-24T08:31:47.438Z,9.02
2022-11-24T08:34:17.095Z,9.02
2022-11-24T08:36:46.855Z,9.26
2022-11-24T08:39:16.587Z,9.35
2022-11-24T08:41:46.398Z,9.42
2022-11-24T08:44:18.145Z,9.23
2022-11-24T08:46:47.967Z,9.27
2022-11-24T08:49:18.831Z,9.13
2022-11-24T08:51:49.903Z,8.97
2022-11-24T08:54:20.304Z,9.11
2022-11-24T08:56:50.934Z,9.11
2022-11-24T08:59:20.856Z,9.08
2022-11-24T09:01:51.075Z,9.19
2022-11-24T09:04:20.925Z,9.43
2022-11-24T09:06:50.739Z,9.43
2022-11-24T09:09:20.500Z,9.68
2022-11-24T09:11:50.224Z,9.47
2022-11-24T09:14:20.079Z,9.63
2022-11-24T09:16:49.907Z,9.64
2022-11-24T09:19:19.642Z,9.98
2022-11-24T09:21:49.379Z,9.67
2022-11-24T09:24:18.987Z,9.58
2022-11-24T09:26:48.751Z,9.55
2022-11-24T09:29:18.498Z,9.91
2022-11-24T09:31:48.288Z,10.10
2022-11-24T09:34:18.059Z,10.36
2022-11-24T09:36:47.796Z,10.20
2022-11-24T09:39:17.515Z,10.35
2022-11-24T09:41:59.199Z,10.05
2022-11-24T09:44:55.224Z,10.37
2022-11-24T09:47:46.126Z,10.37
2022-11-24T09:50:27.921Z,10.25
2022-11-24T09:53:15.584Z,10.27
2022-11-24T09:55:56.986Z,10.84
2022-11-24T09:58:32.356Z,10.50
2022-11-24T10:01:12.227Z,10.58
2022-11-24T10:03:44.763Z,10.62
2022-11-24T10:06:30.077Z,10.83
2022-11-24T10:09:05.796Z,10.45
2022-11-24T10:11:56.043Z,10.64
2022-11-24T10:14:34.319Z,11.19
2022-11-24T10:17:18.892Z,11.30
2022-11-24T10:20:00.541Z,11.31
2022-11-24T10:22:58.536Z,11.30
2022-11-24T10:25:34.153Z,11.36
2022-11-24T10:28:09.368Z,11.09
2022-11-24T10:30:39.222Z,10.88
2022-11-24T10:33:14.979Z,10.88
2022-11-24T10:35:55.980Z,11.11
2022-11-24T10:38:40.449Z,11.01
2022-11-24T10:41:13.244Z,11.01
2022-11-24T10:43:44.146Z,11.14
2022-11-24T10:46:16.267Z,11.31
2022-11-24T10:48:49.069Z,11.47
2022-11-24T10:51:30.534Z,11.73
2022-11-24T10:54:03.338Z,11.07
2022-11-24T10:56:41.187Z,11.10
2022-11-24T10:59:32.453Z,11.40
2022-11-24T11:02:02.707Z,11.37
2022-11-24T11:04:36.941Z,11.15
2022-11-24T11:07:25.289Z,11.19
2022-11-24T11:10:20.705Z,11.36
2022-11-24T11:12:50.592Z,11.40
2022-11-24T11:15:31.697Z,11.56
2022-11-24T11:18:02.194Z,11.68
2022-11-24T11:20:36.544Z,11.70
2022-11-24T11:23:09.324Z,11.65
2022-11-24T11:25:41.019Z,11.95
2022-11-24T11:28:20.463Z,12.16
2022-11-24T11:31:20.053Z,12.15
2022-11-24T11:36:11.767Z,12.23
2022-11-24T11:38:42.470Z,12.39
2022-11-24T11:41:33.461Z,12.39
2022-11-24T11:44:17.873Z,12.03
2022-11-24T11:46:48.265Z,12.16
2022-11-24T11:49:17.979Z,12.44
2022-11-24T11:52:10.373Z,12.41
2022-11-24T11:54:48.577Z,12.20
2022-11-24T11:57:37.320Z,12.47
2022-11-24T12:00:22.920Z,12.91
2022-11-24T12:03:18.069Z,12.30
2022-11-24T12:05:53.533Z,12.30
2022-11-24T12:09:11.653Z,12.58
2022-11-24T12:11:30.395Z,12.49
2022-11-24T12:14:13.277Z,12.49
2022-11-24T12:16:57.392Z,12.57
2022-11-24T12:19:30.191Z,12.84
2022-11-24T12:22:25.169Z,12.88
2022-11-24T12:25:00.587Z,13.03
2022-11-24T12:27:51.524Z,13.48
2022-11-24T12:30:22.994Z,13.40
2022-11-24T12:33:07.940Z,13.93
2022-11-24T12:35:43.891Z,13.59
2022-11-24T12:38:29.350Z,13.70
2022-11-24T12:43:53.668Z,12.69
2022-11-24T12:46:50.308Z,12.95
2022-11-24T12:49:40.522Z,12.78
2022-11-24T12:52:29.031Z,13.13
2022-11-24T12:55:00.587Z,12.81
2022-11-24T12:57:39.757Z,12.90
2022-11-24T13:00:32.703Z,12.81
2022-11-24T13:03:23.450Z,13.18
2022-11-24T13:05:58.948Z,13.32
2022-11-24T13:08:30.549Z,13.63
2022-11-24T13:11:25.328Z,14.25
2022-11-24T13:14:00.474Z,14.12
2022-11-24T13:16:48.756Z,13.87
2022-11-24T13:19:04.850Z,14.24
2022-11-24T13:21:38.697Z,13.78
2022-11-24T13:24:25.082Z,13.63
2022-11-24T13:27:17.951Z,14.12
2022-11-24T13:29:49.540Z,13.55
2022-11-24T13:32:22.150Z,14.15
2022-11-24T13:34:57.595Z,13.72
2022-11-24T13:37:34.564Z,13.72
2022-11-24T13:40:18.100Z,13.52
2022-11-24T13:43:02.649Z,13.02
2022-11-24T13:45:45.798Z,12.83
2022-11-24T13:48:23.982Z,12.88
2022-11-24T13:50:57.071Z,13.01
2022-11-24T13:53:35.592Z,12.83
2022-11-24T13:56:16.334Z,12.96
2022-11-24T13:58:52.435Z,13.03
2022-11-24T14:01:33.431Z,13.19
2022-11-24T14:04:30.418Z,13.10
2022-11-24T14:07:01.179Z,13.24
2022-11-24T14:09:46.602Z,13.18
2022-11-24T14:12:19.156Z,13.20
2022-11-24T14:14:51.663Z,13.26
2022-11-24T14:17:24.457Z,13.18
2022-11-24T14:19:56.708Z,13.13
2022-11-24T14:22:35.300Z,12.93
2022-11-24T14:25:07.641Z,12.89
2022-11-24T14:27:39.988Z,12.88
2022-11-24T14:30:14.408Z,13.05
2022-11-24T14:32:47.202Z,12.93
2022-11-24T14:35:26.070Z,12.55
2022-11-24T14:37:56.490Z,12.53
2022-11-24T14:40:46.559Z,12.57
2022-11-24T14:43:25.115Z,12.31
2022-11-24T14:46:07.172Z,12.31
2022-11-24T14:48:42.762Z,11.87
2022-11-24T14:51:15.278Z,11.99
2022-11-24T14:53:47.641Z,12.03
2022-11-24T14:56:28.674Z,12.05
2022-11-24T14:58:59.538Z,11.78
2022-11-24T15:01:34.794Z,11.82
2022-11-24T15:07:19.158Z,11.69
2022-11-24T15:09:51.973Z,11.60
2022-11-24T15:12:34.400Z,11.48
2022-11-24T15:15:20.115Z,11.31
2022-11-24T15:17:53.448Z,11.36
2022-11-24T15:20:31.995Z,11.23
2022-11-24T15:23:24.205Z,11.08
2022-11-24T15:26:05.538Z,11.12
2022-11-24T15:28:35.441Z,11.01
2022-11-24T15:31:07.338Z,10.96
2022-11-24T15:33:37.019Z,10.95
2022-11-24T15:36:08.873Z,10.77
2022-11-24T15:38:38.607Z,10.95
2022-11-24T15:41:17.719Z,10.85
2022-11-24T15:43:47.841Z,10.83
2022-11-24T15:46:17.467Z,10.54
2022-11-24T15:48:47.300Z,10.58
2022-11-24T15:51:17.049Z,10.58
2022-11-24T15:53:55.671Z,10.49
2022-11-24T15:56:29.163Z,10.40
2022-11-24T15:58:58.676Z,10.32
2022-11-24T16:01:31.658Z,10.33
2022-11-24T16:04:02.504Z,10.28
2022-11-24T16:06:32.496Z,10.26
2022-11-24T16:09:02.251Z,10.16
2022-11-24T16:11:32.007Z,10.01
2022-11-24T16:14:02.050Z,9.98
2022-11-24T16:16:31.972Z,10.03
2022-11-24T16:19:01.773Z,10.09
2022-11-24T16:21:31.911Z,10.05
2022-11-24T16:24:01.395Z,10.16
2022-11-24T16:26:31.160Z,10.10
2022-11-24T16:29:00.887Z,9.97
2022-11-24T16:31:30.993Z,10.04
2022-11-24T16:34:00.749Z,9.92
2022-11-24T16:36:30.323Z,9.98
2022-11-24T16:39:01.132Z,9.84
2022-11-24T16:41:30.893Z,9.77
2022-11-24T16:44:00.641Z,9.67
2022-11-24T16:46:30.474Z,9.68
2022-11-24T16:49:01.140Z,9.68
2022-11-24T16:51:34.680Z,9.86
2022-11-24T16:54:04.002Z,9.75
2022-11-24T16:56:33.821Z,9.55
2022-11-24T16:59:03.733Z,9.54
2022-11-24T17:01:33.583Z,9.53
2022-11-24T17:04:06.997Z,9.47
2022-11-24T17:06:35.496Z,9.66
2022-11-24T17:09:05.667Z,9.51
2022-11-24T17:11:35.442Z,9.44
2022-11-24T17:14:05.823Z,9.44
2022-11-24T17:16:35.705Z,9.45
2022-11-24T17:19:06.500Z,9.57
2022-11-24T17:21:36.616Z,9.54
2022-11-24T17:24:10.074Z,9.34
2022-11-24T17:26:42.501Z,9.32
2022-11-24T17:29:11.414Z,9.35
2022-11-24T17:31:41.230Z,9.19
2022-11-24T17:34:13.416Z,9.24
2022-11-24T17:36:44.882Z,9.17
2022-11-24T17:39:15.332Z,9.30
2022-11-24T17:41:45.520Z,9.44
2022-11-24T17:44:15.249Z,9.35
2022-11-24T17:46:45.655Z,9.20
2022-11-24T17:49:15.398Z,9.28
2022-11-24T17:51:46.763Z,9.32
2022-11-24T17:54:45.229Z,9.25
2022-11-24T17:56:48.891Z,9.31
2022-11-24T17:59:18.859Z,9.38
2022-11-24T18:01:48.670Z,9.28
2022-11-24T18:04:18.399Z,9.11
2022-11-24T18:06:48.194Z,9.21
2022-11-24T18:09:18.247Z,9.31
2022-11-24T18:11:47.974Z,9.25
2022-11-24T18:14:17.756Z,9.32
2022-11-24T18:16:47.610Z,9.22
2022-11-24T18:19:17.745Z,9.20
2022-11-24T18:21:47.455Z,9.20
2022-11-24T18:24:23.777Z,9.17
2022-11-24T18:26:50.137Z,9.31
2022-11-24T18:29:19.881Z,9.21
2022-11-24T18:31:49.701Z,9.28
2022-11-24T18:34:19.727Z,9.24
2022-11-24T18:36:51.109Z,9.45
2022-11-24T18:39:20.572Z,9.24
2022-11-24T18:41:50.401Z,9.26
2022-11-24T18:44:20.584Z,9.13
2022-11-24T18:46:50.695Z,8.99
2022-11-24T18:49:20.458Z,9.19
2022-11-24T18:51:50.596Z,9.19
2022-11-24T18:54:20.513Z,9.06
2022-11-24T18:56:50.360Z,9.02
2022-11-24T18:59:20.178Z,8.96
2022-11-24T19:01:50.091Z,8.82
2022-11-24T19:04:19.825Z,8.87
2022-11-24T19:06:49.559Z,8.84
2022-11-24T19:09:21.419Z,8.85
2022-11-24T19:11:51.145Z,8.72
2022-11-24T19:14:20.963Z,8.67
2022-11-24T19:16:50.938Z,8.82
2022-11-24T19:19:20.751Z,8.70
2022-11-24T19:21:50.492Z,8.68
2022-11-24T19:24:19.987Z,8.68
2022-11-24T19:26:51.193Z,8.69
2022-11-24T19:29:21.393Z,8.59
2022-11-24T19:31:51.198Z,8.38
2022-11-24T19:34:21.031Z,8.41
2022-11-24T19:36:50.765Z,8.54
2022-11-24T19:39:20.564Z,8.38
2022-11-24T19:41:50.309Z,8.56
2022-11-24T19:44:20.102Z,8.41
2022-11-24T19:46:49.915Z,8.42
2022-11-24T19:49:19.629Z,8.53
2022-11-24T19:51:49.935Z,8.35
2022-11-24T19:54:19.658Z,8.34
2022-11-24T19:56:49.463Z,8.46
2022-11-24T19:59:19.407Z,8.34
2022-11-24T20:01:49.244Z,8.10
2022-11-24T20:04:20.277Z,8.27
2022-11-24T20:06:50.029Z,8.44
2022-11-24T20:09:19.820Z,8.44
2022-11-24T20:11:49.561Z,8.32
2022-11-24T20:14:19.380Z,8.32
2022-11-24T20:16:49.432Z,8.32
2022-11-24T20:19:19.786Z,8.12
2022-11-24T20:21:50.245Z,8.23
2022-11-24T20:24:24.640Z,8.22
2022-11-24T20:26:58.180Z,8.18
2022-11-24T20:29:29.156Z,8.22
2022-11-24T20:31:58.940Z,8.10
2022-11-24T20:34:28.803Z,8.10
2022-11-24T20:36:58.538Z,8.13
2022-11-24T20:39:29.150Z,8.25
2022-11-24T20:41:59.488Z,8.13
2022-11-24T20:44:30.111Z,8.23
2022-11-24T20:47:01.205Z,8.34
2022-11-24T20:49:30.774Z,8.33
2022-11-24T20:52:00.673Z,8.46
2022-11-24T20:54:31.062Z,8.46
2022-11-24T20:57:00.800Z,8.41
2022-11-24T20:59:30.591Z,8.36
2022-11-24T21:02:00.478Z,8.46
2022-11-24T21:04:30.568Z,8.61
2022-11-24T21:07:00.375Z,8.60
2022-11-24T21:09:30.560Z,8.60
2022-11-24T21:12:00.889Z,8.63
2022-11-24T21:14:35.135Z,8.61
2022-11-24T21:17:02.284Z,8.71
2022-11-24T21:19:32.024Z,8.71
2022-11-24T21:22:01.478Z,8.87
2022-11-24T21:24:31.221Z,8.71
2022-11-24T21:27:00.961Z,8.80
2022-11-24T21:29:30.406Z,8.88
2022-11-24T21:32:00.365Z,8.72
2022-11-24T21:34:29.881Z,8.96
2022-11-24T21:36:59.609Z,8.95
2022-11-24T21:39:29.729Z,8.69
2022-11-24T21:41:59.484Z,8.95
2022-11-24T21:44:30.911Z,8.83
2022-11-24T21:47:01.037Z,8.82
2022-11-24T21:49:31.129Z,8.82
2022-11-24T21:52:00.878Z,8.99
2022-11-24T21:54:30.899Z,8.99
2022-11-24T21:57:00.658Z,8.83
2022-11-24T21:59:30.682Z,8.80
2022-11-24T22:02:00.579Z,8.80
2022-11-24T22:04:30.035Z,8.77
2022-11-24T22:06:59.763Z,8.74
2022-11-24T22:09:29.799Z,8.59
2022-11-24T22:11:59.551Z,8.44
2022-11-24T22:14:29.272Z,8.55
2022-11-24T22:16:59.051Z,8.55
2022-11-24T22:19:28.787Z,8.47
2022-11-24T22:21:58.549Z,8.34
2022-11-24T22:24:27.995Z,8.45
2022-11-24T22:26:58.027Z,8.64
2022-11-24T22:29:28.243Z,8.57
2022-11-24T22:31:58.444Z,8.34
2022-11-24T22:34:28.034Z,8.35
2022-11-24T22:36:58.062Z,8.46
2022-11-24T22:39:27.811Z,8.45
2022-11-24T22:41:57.538Z,8.61
2022-11-24T22:44:27.270Z,8.63
2022-11-24T22:46:57.882Z,8.36
2022-11-24T22:49:28.224Z,8.53
2022-11-24T22:51:57.984Z,8.43
2022-11-24T22:54:28.009Z,8.58
2022-11-24T22:56:57.746Z,8.49
2022-11-24T22:59:27.479Z,8.60
2022-11-24T23:01:57.251Z,8.40
2022-11-24T23:04:27.393Z,8.45
2022-11-24T23:06:57.190Z,8.61
2022-11-24T23:09:27.001Z,8.65
2022-11-24T23:11:56.751Z,8.58
2022-11-24T23:14:26.998Z,8.72
2022-11-24T23:16:56.679Z,8.74
2022-11-24T23:19:26.742Z,8.71
2022-11-24T23:21:56.474Z,8.68
2022-11-24T23:24:26.274Z,8.79
2022-11-24T23:26:56.007Z,9.00
2022-11-24T23:29:26.037Z,8.83
2022-11-24T23:31:55.837Z,9.05
2022-11-24T23:34:25.577Z,9.04
2022-11-24T23:36:55.314Z,9.04
2022-11-24T23:39:25.054Z,9.08
2022-11-24T23:41:54.508Z,8.97
2022-11-24T23:44:24.237Z,9.22
2022-11-24T23:46:53.970Z,9.01
2022-11-24T23:49:23.706Z,8.97
2022-11-24T23:51:53.610Z,9.03
2022-11-24T23:54:23.347Z,9.06
2022-11-24T23:56:52.975Z,8.90
2022-11-24T23:59:22.798Z,9.11
